Nain, Canada
Current Conditions -  °F | °C
As of 12:00 PM on Sunday 25 Jan 2015 (Local Time) from CYDP Reporting Station
Light Snow Light Snow  
Wind Chill: -14°   Ceiling: 1900
Heat Index:   Visibility: 1.5mi
Dew Point:   Wind: 16mph
Humidity: 78%   Direction: 320°NW
Pressure: 29.14"   Gusts: NA
Location:  56.55°N, 61.68°W
Report Text: CYDP 251600Z 32014KT 1 1/2SM -SN OVC019 M15/M18 A2914 RMKSN2SC6 SLP868
Loading
Personal Weather Stations






























Interactive Weather Map New forecast layout! Learn more

10-Day Weather Forecast

Advertisements
Track Severe Weather on mobile